Time;durP1;ratioP1;P1;durP2;ratioP2;P2;SDS_P1;SDS_P2;PMS_P1;PMS_P2;Temp;Humidity;BMP_temperature;BMP_pressure;BME280_temperature;BME280_humidity;BME280_pressure;Samples;Min_cycle;Max_cycle;Signal;HPM_P1;HPM_P2
2023/04/23 00:01:02;;;;;;;30.15;15.93;;;;;;;;;;5009268;28;20041;-69
2023/04/23 00:03:31;;;;;;;29.48;15.98;;;;;;;;;;5044620;28;20617;-67
2023/04/23 00:05:58;;;;;;;29.38;15.27;;;;;;;;;;5045498;28;20067;-69
2023/04/23 00:08:24;;;;;;;24.92;14.68;;;;;;;;;;5044488;28;20498;-68
2023/04/23 00:10:50;;;;;;;31.63;15.07;;;;;;;;;;5043413;28;20437;-68
2023/04/23 00:13:17;;;;;;;32.00;15.95;;;;;;;;;;5043463;28;20055;-69
2023/04/23 00:15:43;;;;;;;32.35;16.08;;;;;;;;;;5024947;28;20052;-68
2023/04/23 00:18:09;;;;;;;31.70;16.10;;;;;;;;;;5043249;28;20629;-69
2023/04/23 00:20:36;;;;;;;31.80;15.93;;;;;;;;;;5043393;28;20063;-67
2023/04/23 00:23:02;;;;;;;32.85;17.77;;;;;;;;;;5040609;28;20086;-68
2023/04/23 00:25:28;;;;;;;34.28;17.00;;;;;;;;;;5043830;28;20045;-68
2023/04/23 00:27:54;;;;;;;31.27;16.73;;;;;;;;;;5043387;28;20037;-70
2023/04/23 00:30:20;;;;;;;32.47;17.13;;;;;;;;;;5042646;28;20079;-68
2023/04/23 00:32:47;;;;;;;33.45;17.48;;;;;;;;;;5042911;28;20053;-68
2023/04/23 00:35:13;;;;;;;33.58;17.55;;;;;;;;;;5043466;28;20045;-67
2023/04/23 00:37:39;;;;;;;33.22;17.25;;;;;;;;;;5042981;28;20060;-69
2023/04/23 00:40:06;;;;;;;34.42;17.83;;;;;;;;;;5042950;28;20033;-69
2023/04/23 00:42:32;;;;;;;34.55;18.10;;;;;;;;;;5025907;28;20523;-69
2023/04/23 00:45:00;;;;;;;33.33;17.02;;;;;;;;;;5042531;28;20101;-69
2023/04/23 00:47:29;;;;;;;32.75;17.95;;;;;;;;;;5043663;28;20041;-69
2023/04/23 00:49:56;;;;;;;32.88;17.50;;;;;;;;;;5044773;28;20045;-69
2023/04/23 00:52:22;;;;;;;35.75;18.52;;;;;;;;;;5047200;28;20037;-69
2023/04/23 00:54:48;;;;;;;35.25;17.05;;;;;;;;;;5046941;28;20175;-67
2023/04/23 00:57:15;;;;;;;36.85;18.27;;;;;;;;;;5047110;28;20072;-69
2023/04/23 00:59:42;;;;;;;32.28;18.63;;;;;;;;;;5046015;28;20073;-69
2023/04/23 01:02:08;;;;;;;35.33;18.48;;;;;;;;;;5046618;28;20044;-70
2023/04/23 01:04:35;;;;;;;39.53;19.05;;;;;;;;;;5047046;28;20052;-69
2023/04/23 01:07:01;;;;;;;38.10;18.70;;;;;;;;;;5046417;28;20045;-69
2023/04/23 01:09:27;;;;;;;36.85;20.05;;;;;;;;;;5047032;28;20474;-67
2023/04/23 01:11:54;;;;;;;34.92;18.50;;;;;;;;;;5046488;28;20387;-68
2023/04/23 01:14:20;;;;;;;35.10;18.58;;;;;;;;;;5045751;28;20513;-68
2023/04/23 01:16:46;;;;;;;42.90;20.45;;;;;;;;;;5046411;28;20241;-68
2023/04/23 01:19:14;;;;;;;37.85;20.63;;;;;;;;;;5046800;28;20495;-67
2023/04/23 01:21:41;;;;;;;39.67;20.55;;;;;;;;;;5046303;28;20041;-66
2023/04/23 01:24:07;;;;;;;41.42;21.08;;;;;;;;;;5046612;28;20080;-67
2023/04/23 01:26:34;;;;;;;41.85;21.75;;;;;;;;;;5046332;28;20075;-67
2023/04/23 01:29:00;;;;;;;41.90;21.27;;;;;;;;;;5045887;28;20135;-66
2023/04/23 01:31:28;;;;;;;45.42;21.30;;;;;;;;;;5047021;28;20045;-67
2023/04/23 01:33:54;;;;;;;49.55;22.08;;;;;;;;;;5043501;28;20037;-66
2023/04/23 01:36:22;;;;;;;49.38;23.83;;;;;;;;;;5046147;28;20115;-66
2023/04/23 01:38:50;;;;;;;58.55;27.55;;;;;;;;;;5043679;28;20045;-66
2023/04/23 01:41:16;;;;;;;63.53;28.00;;;;;;;;;;5046252;28;20045;-67
2023/04/23 01:43:42;;;;;;;59.63;26.60;;;;;;;;;;5045745;28;20699;-68
2023/04/23 01:46:09;;;;;;;64.07;30.20;;;;;;;;;;5045184;28;20513;-67
2023/04/23 01:48:36;;;;;;;73.43;31.02;;;;;;;;;;5045906;28;20044;-65
2023/04/23 01:51:02;;;;;;;70.63;31.73;;;;;;;;;;5046235;28;20048;-68
2023/04/23 01:53:28;;;;;;;66.07;30.60;;;;;;;;;;5046308;28;20568;-66
2023/04/23 01:55:55;;;;;;;70.90;30.85;;;;;;;;;;5045718;28;20047;-68
2023/04/23 01:58:22;;;;;;;76.65;32.60;;;;;;;;;;5045609;28;20037;-68
2023/04/23 02:00:49;;;;;;;69.45;31.33;;;;;;;;;;5044297;28;20037;-68
2023/04/23 02:03:15;;;;;;;69.15;30.80;;;;;;;;;;5045804;28;20136;-68
2023/04/23 02:05:41;;;;;;;67.10;30.77;;;;;;;;;;5045403;28;20079;-67
2023/04/23 02:08:08;;;;;;;70.72;30.98;;;;;;;;;;5045925;28;20044;-65
2023/04/23 02:10:34;;;;;;;66.70;31.15;;;;;;;;;;5028022;28;20135;-68
2023/04/23 02:13:00;;;;;;;67.20;30.60;;;;;;;;;;5044987;28;20083;-67
2023/04/23 02:15:27;;;;;;;72.45;32.83;;;;;;;;;;5042493;28;20147;-67
2023/04/23 02:17:53;;;;;;;65.10;29.85;;;;;;;;;;5045688;28;20043;-67
2023/04/23 02:20:20;;;;;;;67.15;30.63;;;;;;;;;;5045558;28;20055;-67
2023/04/23 02:22:47;;;;;;;66.93;30.85;;;;;;;;;;5045197;28;20111;-68
2023/04/23 02:25:14;;;;;;;65.03;28.80;;;;;;;;;;5041679;28;20699;-67
2023/04/23 02:27:41;;;;;;;64.85;30.20;;;;;;;;;;5042699;28;20187;-68
2023/04/23 02:30:08;;;;;;;63.53;28.80;;;;;;;;;;5044905;28;20040;-68
2023/04/23 02:32:35;;;;;;;61.78;28.75;;;;;;;;;;5045292;28;20514;-68
2023/04/23 02:35:02;;;;;;;63.50;28.83;;;;;;;;;;5045297;28;20076;-68
2023/04/23 02:37:28;;;;;;;62.75;29.73;;;;;;;;;;5045412;28;20099;-66
2023/04/23 02:39:54;;;;;;;67.68;30.35;;;;;;;;;;5044919;28;20045;-67
2023/04/23 02:42:20;;;;;;;69.25;32.65;;;;;;;;;;5045028;28;20071;-68
2023/04/23 02:44:46;;;;;;;68.78;31.63;;;;;;;;;;5044548;28;20044;-68
2023/04/23 02:47:12;;;;;;;66.15;29.10;;;;;;;;;;5045181;28;20048;-68
2023/04/23 02:49:39;;;;;;;62.05;28.50;;;;;;;;;;5043757;28;20363;-67
2023/04/23 02:52:05;;;;;;;60.72;28.65;;;;;;;;;;5044760;28;20197;-69
2023/04/23 02:54:31;;;;;;;61.72;28.42;;;;;;;;;;5043847;28;20088;-69
2023/04/23 02:56:57;;;;;;;58.72;27.73;;;;;;;;;;5045060;28;20119;-68
2023/04/23 02:59:24;;;;;;;55.70;27.33;;;;;;;;;;5044270;28;20045;-68
2023/04/23 03:01:50;;;;;;;55.13;25.85;;;;;;;;;;5044697;28;20557;-68
2023/04/23 03:04:17;;;;;;;48.50;24.77;;;;;;;;;;5044978;28;20134;-68
2023/04/23 03:06:43;;;;;;;57.97;26.40;;;;;;;;;;5044370;28;20040;-68
2023/04/23 03:09:09;;;;;;;53.88;26.65;;;;;;;;;;5044748;28;20390;-67
2023/04/23 03:11:35;;;;;;;58.80;27.98;;;;;;;;;;5044030;28;20127;-67
2023/04/23 03:14:01;;;;;;;53.97;25.45;;;;;;;;;;5042740;28;20129;-68
2023/04/23 03:16:28;;;;;;;53.47;26.88;;;;;;;;;;5045025;28;20049;-68
2023/04/23 03:18:55;;;;;;;59.08;27.52;;;;;;;;;;5044531;28;20763;-66
2023/04/23 03:21:21;;;;;;;59.70;27.52;;;;;;;;;;5043849;28;20033;-69
2023/04/23 03:23:47;;;;;;;70.40;28.35;;;;;;;;;;5043606;28;20279;-68
2023/04/23 03:26:13;;;;;;;131.20;31.38;;;;;;;;;;5026735;28;20041;-68
2023/04/23 03:28:39;;;;;;;88.65;30.67;;;;;;;;;;5043409;28;20048;-66
2023/04/23 03:31:05;;;;;;;127.20;32.90;;;;;;;;;;5044226;28;20040;-66
2023/04/23 03:33:31;;;;;;;125.80;33.00;;;;;;;;;;5034878;28;20045;-66
2023/04/23 03:35:57;;;;;;;179.82;33.40;;;;;;;;;;5044189;28;20056;-67
2023/04/23 03:38:24;;;;;;;135.63;32.22;;;;;;;;;;5043863;28;20037;-68
2023/04/23 03:40:50;;;;;;;114.28;33.15;;;;;;;;;;5043761;28;20065;-68
2023/04/23 03:43:16;;;;;;;124.15;30.98;;;;;;;;;;5044056;28;20040;-68
2023/04/23 03:45:43;;;;;;;155.65;31.88;;;;;;;;;;5025352;28;20102;-67
2023/04/23 03:48:09;;;;;;;104.30;31.38;;;;;;;;;;5044017;28;20405;-68
2023/04/23 03:50:39;;;;;;;93.70;31.17;;;;;;;;;;5043471;28;20041;-62
2023/04/23 03:53:05;;;;;;;173.65;32.75;;;;;;;;;;5043439;28;20055;-68
2023/04/23 03:55:31;;;;;;;127.13;29.63;;;;;;;;;;5043932;28;20041;-67
2023/04/23 03:58:00;;;;;;;125.68;31.63;;;;;;;;;;5026357;28;20183;-67
2023/04/23 04:00:26;;;;;;;97.63;28.17;;;;;;;;;;5043564;28;20052;-67
2023/04/23 04:02:53;;;;;;;93.82;30.52;;;;;;;;;;5026069;28;20073;-67
2023/04/23 04:05:19;;;;;;;103.72;28.90;;;;;;;;;;5043292;28;20043;-67
2023/04/23 04:07:45;;;;;;;141.00;31.95;;;;;;;;;;5043542;28;20083;-68
2023/04/23 04:10:11;;;;;;;116.75;32.75;;;;;;;;;;5043711;28;20544;-66
2023/04/23 04:12:37;;;;;;;170.77;33.97;;;;;;;;;;5039295;28;20045;-67
2023/04/23 04:15:04;;;;;;;181.05;36.05;;;;;;;;;;5041826;28;20132;-68
2023/04/23 04:17:30;;;;;;;196.35;36.65;;;;;;;;;;5043323;28;20041;-69
2023/04/23 04:19:56;;;;;;;206.25;38.67;;;;;;;;;;5043298;28;20037;-67
2023/04/23 04:22:23;;;;;;;289.20;40.17;;;;;;;;;;5043496;28;20043;-67
2023/04/23 04:24:50;;;;;;;124.47;35.95;;;;;;;;;;5043163;28;20080;-66
2023/04/23 04:27:17;;;;;;;120.17;36.23;;;;;;;;;;5043346;28;20037;-67
2023/04/23 04:29:43;;;;;;;105.75;36.97;;;;;;;;;;5042132;28;20299;-67
2023/04/23 04:32:10;;;;;;;97.03;37.85;;;;;;;;;;5043308;28;20116;-67
2023/04/23 04:34:37;;;;;;;91.78;37.08;;;;;;;;;;5025985;28;20115;-66
2023/04/23 04:37:03;;;;;;;108.15;36.47;;;;;;;;;;5043058;28;20120;-67
2023/04/23 04:39:29;;;;;;;97.43;36.00;;;;;;;;;;5043463;28;20198;-61
2023/04/23 04:41:56;;;;;;;118.20;40.15;;;;;;;;;;5043210;28;20120;-67
2023/04/23 04:44:22;;;;;;;105.85;39.00;;;;;;;;;;5024842;28;20076;-65
2023/04/23 04:46:48;;;;;;;91.40;38.30;;;;;;;;;;5043076;28;20076;-66
2023/04/23 04:49:17;;;;;;;105.13;38.13;;;;;;;;;;5043103;28;20131;-67
2023/04/23 04:51:43;;;;;;;97.35;37.65;;;;;;;;;;5043143;28;20109;-68
2023/04/23 04:54:09;;;;;;;96.65;37.65;;;;;;;;;;5042840;28;20044;-67
2023/04/23 04:56:35;;;;;;;89.28;39.03;;;;;;;;;;5026536;28;20049;-65
2023/04/23 04:59:02;;;;;;;91.78;38.70;;;;;;;;;;5042794;28;20036;-70
2023/04/23 05:01:29;;;;;;;102.65;41.05;;;;;;;;;;5043208;28;20045;-67
2023/04/23 05:03:55;;;;;;;94.55;41.40;;;;;;;;;;5043231;28;20053;-67
2023/04/23 05:06:22;;;;;;;98.38;40.72;;;;;;;;;;5042817;28;20066;-68
2023/04/23 05:08:48;;;;;;;100.88;40.35;;;;;;;;;;5042370;28;20053;-66
2023/04/23 05:11:15;;;;;;;104.38;41.97;;;;;;;;;;5042840;28;20045;-68
2023/04/23 05:13:41;;;;;;;100.22;41.90;;;;;;;;;;5041516;28;20124;-65
2023/04/23 05:16:08;;;;;;;102.40;40.42;;;;;;;;;;5042637;28;20584;-66
2023/04/23 05:18:34;;;;;;;93.63;39.28;;;;;;;;;;5043252;28;20048;-68
2023/04/23 05:21:00;;;;;;;96.55;38.90;;;;;;;;;;5040510;28;20478;-67
2023/04/23 05:23:27;;;;;;;90.00;38.67;;;;;;;;;;5043155;28;20147;-67
2023/04/23 05:25:54;;;;;;;83.38;37.53;;;;;;;;;;5025380;28;20049;-66
2023/04/23 05:28:21;;;;;;;88.20;37.47;;;;;;;;;;5042177;28;20052;-66
2023/04/23 05:30:47;;;;;;;89.80;38.22;;;;;;;;;;5042110;28;20453;-66
2023/04/23 05:33:13;;;;;;;86.78;37.88;;;;;;;;;;5042854;28;20033;-67
2023/04/23 05:35:39;;;;;;;83.78;36.83;;;;;;;;;;5039792;28;20052;-67
2023/04/23 05:38:06;;;;;;;80.88;36.05;;;;;;;;;;5045995;28;20059;-67
2023/04/23 05:40:32;;;;;;;85.50;36.22;;;;;;;;;;5037029;28;20056;-67
2023/04/23 05:42:59;;;;;;;83.97;36.25;;;;;;;;;;5046503;28;20110;-68
2023/04/23 05:45:25;;;;;;;83.75;36.58;;;;;;;;;;5045447;28;20056;-69
2023/04/23 05:47:51;;;;;;;79.45;35.30;;;;;;;;;;5045905;28;20036;-70
2023/04/23 05:50:18;;;;;;;80.85;34.83;;;;;;;;;;5045927;28;20045;-70
2023/04/23 05:52:44;;;;;;;83.80;37.08;;;;;;;;;;5048219;28;20090;-63
2023/04/23 05:55:10;;;;;;;89.78;37.78;;;;;;;;;;5045222;28;20878;-63
2023/04/23 05:57:37;;;;;;;83.25;36.28;;;;;;;;;;5045546;28;20037;-63
2023/04/23 06:00:08;;;;;;;87.10;38.00;;;;;;;;;;5044680;28;20041;-63
2023/04/23 06:02:34;;;;;;;82.28;37.17;;;;;;;;;;5044880;28;20048;-64
2023/04/23 06:05:00;;;;;;;82.70;36.70;;;;;;;;;;5025046;28;20043;-64
2023/04/23 06:07:26;;;;;;;91.25;37.45;;;;;;;;;;5044289;28;20037;-65
2023/04/23 06:09:53;;;;;;;83.78;36.28;;;;;;;;;;5040578;28;20040;-64
2023/04/23 06:12:19;;;;;;;88.55;36.88;;;;;;;;;;5037953;28;20758;-64
2023/04/23 06:14:45;;;;;;;75.75;33.92;;;;;;;;;;5041130;28;20072;-65
2023/04/23 06:17:11;;;;;;;76.78;34.35;;;;;;;;;;5045909;28;20053;-64
2023/04/23 06:19:37;;;;;;;75.63;33.63;;;;;;;;;;5039940;28;20094;-65
2023/04/23 06:22:03;;;;;;;77.05;34.42;;;;;;;;;;5039027;28;20086;-64
2023/04/23 06:24:30;;;;;;;77.43;33.35;;;;;;;;;;5041863;28;20068;-63
2023/04/23 06:26:56;;;;;;;73.30;35.17;;;;;;;;;;5028448;28;20040;-63
2023/04/23 06:29:23;;;;;;;76.60;32.28;;;;;;;;;;5045518;28;20071;-64
2023/04/23 06:31:49;;;;;;;77.35;33.55;;;;;;;;;;5046051;28;20477;-64
2023/04/23 06:34:15;;;;;;;74.90;33.15;;;;;;;;;;5046227;28;20119;-65
2023/04/23 06:36:42;;;;;;;74.80;32.53;;;;;;;;;;5045609;28;20041;-65
2023/04/23 06:39:09;;;;;;;74.25;33.70;;;;;;;;;;5045181;28;20049;-65
2023/04/23 06:41:35;;;;;;;73.10;33.25;;;;;;;;;;5042279;28;20045;-64
2023/04/23 06:44:01;;;;;;;73.22;31.80;;;;;;;;;;5045070;28;20120;-64
2023/04/23 06:46:27;;;;;;;66.18;31.13;;;;;;;;;;5046566;28;20037;-65
2023/04/23 06:48:53;;;;;;;69.78;30.42;;;;;;;;;;5060366;28;20086;-65
2023/04/23 06:51:20;;;;;;;70.18;31.05;;;;;;;;;;5057125;28;20319;-65
2023/04/23 06:53:46;;;;;;;66.07;31.23;;;;;;;;;;5059898;28;20343;-66
2023/04/23 06:56:12;;;;;;;65.80;30.52;;;;;;;;;;5045412;28;20052;-65
2023/04/23 06:58:40;;;;;;;64.43;30.20;;;;;;;;;;5039474;28;20049;-63
2023/04/23 07:01:06;;;;;;;63.03;30.38;;;;;;;;;;5060514;28;20658;-64
2023/04/23 07:03:33;;;;;;;64.75;30.13;;;;;;;;;;5056510;28;20548;-63
2023/04/23 07:06:00;;;;;;;61.90;29.45;;;;;;;;;;5061422;28;20040;-63
2023/04/23 07:08:26;;;;;;;74.40;29.25;;;;;;;;;;5056661;28;20115;-64
2023/04/23 07:10:52;;;;;;;59.17;29.88;;;;;;;;;;5060474;28;20563;-64
2023/04/23 07:13:18;;;;;;;58.88;27.13;;;;;;;;;;5043666;28;20064;-63
2023/04/23 07:15:45;;;;;;;57.63;27.02;;;;;;;;;;5040501;28;20097;-64
2023/04/23 07:18:11;;;;;;;53.25;25.35;;;;;;;;;;5059721;28;20049;-63
2023/04/23 07:20:37;;;;;;;54.53;27.88;;;;;;;;;;5056681;28;20049;-63
2023/04/23 07:23:04;;;;;;;49.28;25.88;;;;;;;;;;5060576;28;20098;-63
2023/04/23 07:25:31;;;;;;;56.35;27.45;;;;;;;;;;5055550;28;20041;-61
2023/04/23 07:27:57;;;;;;;55.38;26.52;;;;;;;;;;5060109;28;20111;-63
2023/04/23 07:30:23;;;;;;;49.40;26.38;;;;;;;;;;5043330;28;20148;-63
2023/04/23 07:32:50;;;;;;;48.90;26.15;;;;;;;;;;5043819;28;20049;-63
2023/04/23 07:35:16;;;;;;;52.35;26.10;;;;;;;;;;5045121;28;20134;-63
2023/04/23 07:37:42;;;;;;;51.28;25.02;;;;;;;;;;5050176;28;20040;-63
2023/04/23 07:40:08;;;;;;;49.30;25.60;;;;;;;;;;5051022;28;20052;-63
2023/04/23 07:42:35;;;;;;;47.33;25.20;;;;;;;;;;5047551;28;20132;-62
2023/04/23 07:45:01;;;;;;;47.45;24.55;;;;;;;;;;5044479;28;20044;-64
2023/04/23 07:47:27;;;;;;;49.83;25.73;;;;;;;;;;5044546;28;20056;-64
2023/04/23 07:49:53;;;;;;;46.08;23.50;;;;;;;;;;5043261;28;20041;-65
2023/04/23 07:52:19;;;;;;;47.47;24.58;;;;;;;;;;5032607;28;20040;-65
2023/04/23 07:54:46;;;;;;;51.53;24.90;;;;;;;;;;5045931;28;20090;-67
2023/04/23 07:57:12;;;;;;;43.78;22.88;;;;;;;;;;5043860;28;20128;-62
2023/04/23 07:59:38;;;;;;;41.38;22.90;;;;;;;;;;5042122;28;20057;-61
2023/04/23 08:02:05;;;;;;;46.38;23.00;;;;;;;;;;5044361;28;20040;-61
2023/04/23 08:04:31;;;;;;;45.13;23.48;;;;;;;;;;5045087;28;20048;-64
2023/04/23 08:06:57;;;;;;;43.88;23.45;;;;;;;;;;5042674;28;20104;-61
2023/04/23 08:09:23;;;;;;;47.72;23.45;;;;;;;;;;5053859;28;20124;-61
2023/04/23 08:11:50;;;;;;;51.78;29.52;;;;;;;;;;5050823;28;20064;-61
2023/04/23 08:14:17;;;;;;;49.70;24.45;;;;;;;;;;5043193;28;20414;-65
2023/04/23 08:16:43;;;;;;;41.97;22.65;;;;;;;;;;5043817;28;20462;-64
2023/04/23 08:19:10;;;;;;;46.45;23.20;;;;;;;;;;5044367;28;20040;-64
2023/04/23 08:21:36;;;;;;;41.22;22.00;;;;;;;;;;5036108;28;20107;-64
2023/04/23 08:24:03;;;;;;;38.35;20.92;;;;;;;;;;5038203;28;20044;-64
2023/04/23 08:26:30;;;;;;;39.63;21.50;;;;;;;;;;5026431;28;20057;-65
2023/04/23 08:28:56;;;;;;;41.85;21.13;;;;;;;;;;5043570;28;20258;-64
2023/04/23 08:31:22;;;;;;;38.97;20.75;;;;;;;;;;5046469;28;20044;-64
2023/04/23 08:33:48;;;;;;;41.85;20.15;;;;;;;;;;5043946;28;20055;-63
2023/04/23 08:36:14;;;;;;;41.28;22.00;;;;;;;;;;5026039;28;20052;-64
2023/04/23 08:38:41;;;;;;;35.72;18.38;;;;;;;;;;5041285;28;20044;-65
2023/04/23 08:41:09;;;;;;;36.72;18.98;;;;;;;;;;5043898;28;20037;-65
2023/04/23 08:43:42;;;;;;;32.30;18.17;;;;;;;;;;5025161;28;20049;-64
2023/04/23 08:46:11;;;;;;;35.22;19.35;;;;;;;;;;5043899;28;20056;-64
2023/04/23 08:48:38;;;;;;;33.65;18.20;;;;;;;;;;5043527;28;20051;-68
2023/04/23 08:51:05;;;;;;;33.70;18.75;;;;;;;;;;5042239;28;20491;-70
2023/04/23 08:53:31;;;;;;;43.42;21.15;;;;;;;;;;5044266;28;20037;-69
2023/04/23 08:55:57;;;;;;;30.45;16.98;;;;;;;;;;5043001;28;20124;-69
2023/04/23 08:58:26;;;;;;;379.13;280.02;;;;;;;;;;5042015;28;20059;-70
2023/04/23 09:00:53;;;;;;;27.67;16.10;;;;;;;;;;5021227;28;20129;-69
2023/04/23 09:03:19;;;;;;;31.85;14.75;;;;;;;;;;5044146;28;20044;-64
2023/04/23 09:05:46;;;;;;;24.35;13.50;;;;;;;;;;5045455;28;20052;-70
2023/04/23 09:08:12;;;;;;;25.02;13.77;;;;;;;;;;5044399;28;20037;-71
2023/04/23 09:10:40;;;;;;;24.98;12.13;;;;;;;;;;5047088;28;20128;-70
2023/04/23 09:13:06;;;;;;;27.25;13.27;;;;;;;;;;5044364;28;20606;-72
2023/04/23 09:15:37;;;;;;;25.42;13.02;;;;;;;;;;5050385;28;20061;-71
2023/04/23 09:18:03;;;;;;;19.42;10.93;;;;;;;;;;5043545;28;20069;-70
2023/04/23 09:20:29;;;;;;;22.23;11.55;;;;;;;;;;5031502;28;20048;-70
2023/04/23 09:22:55;;;;;;;22.25;12.35;;;;;;;;;;5047011;28;20110;-70
2023/04/23 09:25:23;;;;;;;20.85;10.07;;;;;;;;;;5030069;28;20049;-71
2023/04/23 09:27:50;;;;;;;22.80;10.80;;;;;;;;;;5049180;28;20047;-70
2023/04/23 09:30:16;;;;;;;32.72;13.52;;;;;;;;;;5040826;28;20048;-72
2023/04/23 09:32:44;;;;;;;22.38;10.15;;;;;;;;;;5048271;28;20506;-71
2023/04/23 09:35:12;;;;;;;22.50;11.25;;;;;;;;;;5043156;28;20047;-71
2023/04/23 09:37:41;;;;;;;20.73;8.80;;;;;;;;;;5043476;28;20521;-72
2023/04/23 09:40:08;;;;;;;21.95;8.43;;;;;;;;;;5046846;28;20045;-71
2023/04/23 09:42:35;;;;;;;16.10;7.60;;;;;;;;;;5043148;28;20091;-71
2023/04/23 09:45:07;;;;;;;17.40;8.50;;;;;;;;;;5049618;28;20487;-69
2023/04/23 09:47:34;;;;;;;23.02;8.63;;;;;;;;;;5046906;28;20041;-70
2023/04/23 09:50:01;;;;;;;18.10;6.80;;;;;;;;;;5047096;28;20092;-71
2023/04/23 09:52:28;;;;;;;19.17;7.30;;;;;;;;;;5059162;28;20039;-72
2023/04/23 09:54:58;;;;;;;13.98;5.95;;;;;;;;;;5050194;28;20112;-73
2023/04/23 09:57:25;;;;;;;17.42;6.38;;;;;;;;;;5046459;28;20498;-72
2023/04/23 09:59:51;;;;;;;17.63;6.57;;;;;;;;;;5039815;28;20049;-73
2023/04/23 10:02:18;;;;;;;16.20;7.10;;;;;;;;;;5045561;28;20043;-69
2023/04/23 10:04:44;;;;;;;15.38;7.60;;;;;;;;;;5052863;28;20063;-73
2023/04/23 10:07:12;;;;;;;15.82;7.25;;;;;;;;;;5044702;28;20033;-73
2023/04/23 10:09:40;;;;;;;12.63;6.05;;;;;;;;;;5044743;28;20461;-72
2023/04/23 10:12:07;;;;;;;21.00;6.00;;;;;;;;;;5041714;28;20098;-73
2023/04/23 10:14:33;;;;;;;14.00;5.70;;;;;;;;;;5055259;28;20311;-71
2023/04/23 10:17:00;;;;;;;12.60;5.00;;;;;;;;;;5040035;28;20435;-72
2023/04/23 10:19:27;;;;;;;12.30;4.70;;;;;;;;;;5045081;28;20059;-71
2023/04/23 10:21:59;;;;;;;13.07;5.88;;;;;;;;;;5050390;28;20041;-70
2023/04/23 10:24:27;;;;;;;9.98;5.47;;;;;;;;;;5046201;28;20041;-71
2023/04/23 10:26:56;;;;;;;13.60;5.63;;;;;;;;;;5042629;28;20041;-70
2023/04/23 10:29:26;;;;;;;15.48;8.20;;;;;;;;;;5042371;28;20131;-72
2023/04/23 10:31:53;;;;;;;9.40;5.00;;;;;;;;;;5043046;28;20052;-70
2023/04/23 10:34:20;;;;;;;13.90;5.15;;;;;;;;;;5041031;28;20049;-71
2023/04/23 10:36:46;;;;;;;11.88;5.10;;;;;;;;;;5044309;28;20681;-72
2023/04/23 10:39:13;;;;;;;9.30;4.53;;;;;;;;;;5041745;28;20055;-73
2023/04/23 10:41:40;;;;;;;11.15;5.10;;;;;;;;;;5044835;28;20045;-76
2023/04/23 10:44:10;;;;;;;9.23;4.80;;;;;;;;;;5056690;28;20040;-73
2023/04/23 10:46:36;;;;;;;16.45;5.72;;;;;;;;;;5027011;28;20056;-73
2023/04/23 10:49:05;;;;;;;14.85;4.93;;;;;;;;;;5043298;28;20044;-73
2023/04/23 10:51:34;;;;;;;14.20;5.03;;;;;;;;;;5041857;28;20050;-80
2023/04/23 11:10:42;;;;;;;14.60;3.80;;;;;;;;;;5042293;28;20044;-74
2023/04/23 11:30:51;;;;;;;41.65;26.00;;;;;;;;;;5043295;28;20064;-76
2023/04/23 11:46:36;;;;;;;8.95;4.47;;;;;;;;;;5044209;28;20551;-74
2023/04/23 11:49:05;;;;;;;8.10;2.50;;;;;;;;;;5044751;28;20044;-76
2023/04/23 11:51:31;;;;;;;8.15;2.30;;;;;;;;;;5043481;28;20037;-64
2023/04/23 11:54:04;;;;;;;6.00;1.70;;;;;;;;;;5043726;28;20049;-71
2023/04/23 11:56:31;;;;;;;6.13;1.70;;;;;;;;;;5043621;28;20052;-72
2023/04/23 11:58:58;;;;;;;6.50;2.20;;;;;;;;;;5042910;28;20072;-73
2023/04/23 12:01:25;;;;;;;6.38;2.55;;;;;;;;;;5042702;28;20299;-72
2023/04/23 12:03:51;;;;;;;8.25;2.78;;;;;;;;;;5043356;28;20095;-72
2023/04/23 12:06:18;;;;;;;8.60;2.00;;;;;;;;;;5043276;28;20087;-72
2023/04/23 12:08:45;;;;;;;7.53;1.92;;;;;;;;;;5042753;28;20033;-72
2023/04/23 12:11:12;;;;;;;7.80;2.13;;;;;;;;;;5043320;28;20033;-72
2023/04/23 12:13:40;;;;;;;5.10;2.20;;;;;;;;;;5041803;28;20045;-71
2023/04/23 12:16:06;;;;;;;;;;;;;;;;;;5043184;28;20057;-73
2023/04/23 12:18:36;;;;;;;15.93;2.15;;;;;;;;;;5042748;28;19927;-74
2023/04/23 12:21:06;;;;;;;4.18;1.77;;;;;;;;;;5042786;28;20063;-74
2023/04/23 12:23:34;;;;;;;8.43;2.08;;;;;;;;;;5042718;28;20464;-74
2023/04/23 12:26:02;;;;;;;12.40;1.98;;;;;;;;;;5026066;28;20072;-73
2023/04/23 12:28:28;;;;;;;9.27;1.60;;;;;;;;;;5042196;28;20151;-70
2023/04/23 12:30:59;;;;;;;8.43;2.00;;;;;;;;;;5042216;28;20136;-69
2023/04/23 12:33:28;;;;;;;10.45;2.33;;;;;;;;;;5042951;28;20044;-71
2023/04/23 12:35:54;;;;;;;5.90;1.88;;;;;;;;;;5042783;28;20041;-71
2023/04/23 12:38:22;;;;;;;9.85;2.20;;;;;;;;;;5042780;28;20440;-69
2023/04/23 12:40:48;;;;;;;6.85;1.67;;;;;;;;;;5042511;28;20041;-70
2023/04/23 12:43:15;;;;;;;6.68;2.00;;;;;;;;;;5041865;28;20041;-72
2023/04/23 12:45:41;;;;;;;7.18;1.92;;;;;;;;;;5045259;28;20482;-72
2023/04/23 12:48:07;;;;;;;5.88;1.92;;;;;;;;;;5046084;28;20102;-71
2023/04/23 12:50:33;;;;;;;5.82;1.45;;;;;;;;;;5046267;28;20045;-72
2023/04/23 12:53:00;;;;;;;11.55;2.65;;;;;;;;;;5047200;28;20072;-70
2023/04/23 12:55:26;;;;;;;7.10;2.88;;;;;;;;;;5046650;28;20547;-70
2023/04/23 12:57:52;;;;;;;6.93;1.20;;;;;;;;;;5045818;28;20045;-70
2023/04/23 13:00:18;;;;;;;9.55;1.33;;;;;;;;;;5046227;28;20041;-68
2023/04/23 13:02:44;;;;;;;9.27;1.25;;;;;;;;;;5046339;28;20107;-68
2023/04/23 13:05:10;;;;;;;6.82;1.15;;;;;;;;;;5046504;28;20041;-69
2023/04/23 13:07:37;;;;;;;7.50;1.20;;;;;;;;;;5045373;28;20052;-69
2023/04/23 13:10:03;;;;;;;6.90;1.30;;;;;;;;;;5046379;28;20041;-69
2023/04/23 13:12:29;;;;;;;8.93;1.42;;;;;;;;;;5045844;28;20040;-68
2023/04/23 13:14:56;;;;;;;10.73;1.85;;;;;;;;;;5041481;28;20170;-69
2023/04/23 13:17:24;;;;;;;5.65;1.20;;;;;;;;;;5046307;28;20580;-68
2023/04/23 13:19:50;;;;;;;6.60;1.58;;;;;;;;;;5045531;28;20094;-68
2023/04/23 13:22:16;;;;;;;6.40;0.95;;;;;;;;;;5046609;28;20045;-68
2023/04/23 13:24:42;;;;;;;6.53;1.40;;;;;;;;;;5043142;28;20049;-74
2023/04/23 13:27:08;;;;;;;9.43;1.77;;;;;;;;;;5044769;28;20206;-72
2023/04/23 13:29:34;;;;;;;8.73;1.30;;;;;;;;;;5045730;28;20045;-72
2023/04/23 13:32:00;;;;;;;7.30;1.10;;;;;;;;;;5046504;28;20560;-71
2023/04/23 13:34:26;;;;;;;7.13;1.10;;;;;;;;;;5046080;28;20410;-70
2023/04/23 13:36:53;;;;;;;3.53;1.00;;;;;;;;;;5045368;28;20519;-69
2023/04/23 13:39:20;;;;;;;10.35;1.40;;;;;;;;;;5045933;28;20132;-69
2023/04/23 13:41:46;;;;;;;6.18;0.80;;;;;;;;;;5043756;28;20091;-70
2023/04/23 13:44:12;;;;;;;7.60;0.85;;;;;;;;;;5044788;28;20044;-70
2023/04/23 13:46:39;;;;;;;5.50;0.93;;;;;;;;;;5044889;28;20037;-69
2023/04/23 13:49:05;;;;;;;3.75;0.90;;;;;;;;;;5046059;28;20048;-71
2023/04/23 13:51:31;;;;;;;15.35;1.10;;;;;;;;;;5045338;28;20515;-69
2023/04/23 13:53:58;;;;;;;7.68;1.20;;;;;;;;;;5045804;28;20052;-69
2023/04/23 13:56:24;;;;;;;5.18;1.20;;;;;;;;;;5044584;28;20044;-70
2023/04/23 13:58:51;;;;;;;6.72;1.30;;;;;;;;;;5044663;28;20064;-69
2023/04/23 14:01:18;;;;;;;3.60;0.80;;;;;;;;;;5045044;28;20049;-73
2023/04/23 14:03:46;;;;;;;9.05;1.35;;;;;;;;;;5044616;28;20037;-70
2023/04/23 14:06:12;;;;;;;5.05;1.58;;;;;;;;;;5045111;28;20037;-68
2023/04/23 14:08:38;;;;;;;6.63;1.35;;;;;;;;;;5045331;28;20037;-68
2023/04/23 14:11:04;;;;;;;4.97;0.98;;;;;;;;;;5045236;28;20577;-73
2023/04/23 14:13:31;;;;;;;8.23;1.10;;;;;;;;;;5044429;28;20099;-70
2023/04/23 14:15:58;;;;;;;9.43;1.13;;;;;;;;;;5045105;28;20108;-69
2023/04/23 14:18:24;;;;;;;7.95;1.33;;;;;;;;;;5054232;28;20494;-70
2023/04/23 14:20:50;;;;;;;6.93;1.13;;;;;;;;;;5054315;28;20093;-70
2023/04/23 14:23:16;;;;;;;7.47;1.20;;;;;;;;;;5045495;28;20086;-70
2023/04/23 14:25:45;;;;;;;8.38;1.00;;;;;;;;;;5045204;28;20037;-69
2023/04/23 14:28:34;;;;;;;4.25;1.63;;;;;;;;;;5045021;28;20072;-71
2023/04/23 14:31:01;;;;;;;8.32;1.25;;;;;;;;;;5026472;28;20044;-70
2023/04/23 14:33:27;;;;;;;3.60;0.73;;;;;;;;;;5045853;28;20057;-72
2023/04/23 14:35:53;;;;;;;6.25;1.05;;;;;;;;;;5044922;28;20045;-70
2023/04/23 14:38:19;;;;;;;5.07;0.70;;;;;;;;;;5046943;28;20399;-70
2023/04/23 14:40:45;;;;;;;7.20;1.25;;;;;;;;;;5045257;28;20470;-71
2023/04/23 14:43:11;;;;;;;5.72;0.73;;;;;;;;;;5044721;28;20044;-70
2023/04/23 14:45:38;;;;;;;8.70;1.10;;;;;;;;;;5041006;28;20033;-70
2023/04/23 14:48:04;;;;;;;5.60;1.13;;;;;;;;;;5049480;28;20033;-71
2023/04/23 14:50:30;;;;;;;5.10;0.90;;;;;;;;;;5045490;28;20061;-69
2023/04/23 14:52:57;;;;;;;6.60;1.55;;;;;;;;;;5044426;28;20040;-70
2023/04/23 14:55:24;;;;;;;5.73;1.07;;;;;;;;;;5044581;28;20088;-70
2023/04/23 14:57:50;;;;;;;6.30;0.88;;;;;;;;;;5045000;28;20296;-69
2023/04/23 15:00:16;;;;;;;5.35;1.00;;;;;;;;;;5045105;28;20045;-70
2023/04/23 15:02:45;;;;;;;7.10;1.42;;;;;;;;;;5044961;28;20059;-70
2023/04/23 15:05:12;;;;;;;6.18;1.77;;;;;;;;;;5044733;28;20051;-69
2023/04/23 15:07:38;;;;;;;6.47;2.58;;;;;;;;;;5045891;28;20080;-70